Centerville, Massachusetts
Current Conditions -  °F | °C
As of 2:56 AM on Friday 24 Oct 2014 (Local Time) from KHYA Reporting Station
Light Rain Light Rain  
Wind Chill: 54°   Ceiling: 600
Heat Index: 54°   Visibility: 3mi
Dew Point: 52°   Wind: 18mph
Humidity: 93%   Direction: 360°N
Pressure: 29.55"   Gusts: 30mph
Location:  41.65°N, 70.35°W
Report Text: KHYA 240656Z AUTO 36016G26KT 3SM -RA BR BKN006 OVC011 12/11 A2955 RMK AO2 PK WND 36027/0606 SLP009 P0000 T01220111
Loading
Personal Weather Stations






























Interactive Weather Map
Tropical Storm Tracking
New forecast layout! Learn more

10-Day Weather Forecast

Advertisements
Track Severe Weather on mobile